sensor_id;sensor_type;location;lat;lon;timestamp;temperature;humidity
6538;DHT22;3302;52.508;13.454;2024-03-17T00:01:38;5.40;93.90
6538;DHT22;3302;52.508;13.454;2024-03-17T00:04:04;5.30;93.80
6538;DHT22;3302;52.508;13.454;2024-03-17T00:06:30;5.40;93.90
6538;DHT22;3302;52.508;13.454;2024-03-17T00:08:56;5.30;94.20
6538;DHT22;3302;52.508;13.454;2024-03-17T00:11:22;5.30;94.30
6538;DHT22;3302;52.508;13.454;2024-03-17T00:13:48;5.30;94.30
6538;DHT22;3302;52.508;13.454;2024-03-17T00:16:14;5.30;94.40
6538;DHT22;3302;52.508;13.454;2024-03-17T00:18:42;5.30;94.50
6538;DHT22;3302;52.508;13.454;2024-03-17T00:21:08;5.30;94.70
6538;DHT22;3302;52.508;13.454;2024-03-17T00:23:34;5.30;94.70
6538;DHT22;3302;52.508;13.454;2024-03-17T00:26:00;5.20;94.80
6538;DHT22;3302;52.508;13.454;2024-03-17T00:28:26;5.20;94.90
6538;DHT22;3302;52.508;13.454;2024-03-17T00:30:51;5.20;94.90
6538;DHT22;3302;52.508;13.454;2024-03-17T00:33:17;5.30;94.80
6538;DHT22;3302;52.508;13.454;2024-03-17T00:35:45;5.20;94.70
6538;DHT22;3302;52.508;13.454;2024-03-17T00:38:10;5.20;94.80
6538;DHT22;3302;52.508;13.454;2024-03-17T00:40:39;5.20;94.90
6538;DHT22;3302;52.508;13.454;2024-03-17T00:43:07;5.20;94.90
6538;DHT22;3302;52.508;13.454;2024-03-17T00:45:33;5.20;94.80
6538;DHT22;3302;52.508;13.454;2024-03-17T00:47:59;5.20;94.80
6538;DHT22;3302;52.508;13.454;2024-03-17T00:50:25;5.20;94.80
6538;DHT22;3302;52.508;13.454;2024-03-17T00:52:50;5.20;94.90
6538;DHT22;3302;52.508;13.454;2024-03-17T00:55:16;5.20;95.00
6538;DHT22;3302;52.508;13.454;2024-03-17T00:57:42;5.10;95.10
6538;DHT22;3302;52.508;13.454;2024-03-17T01:00:08;5.10;95.10
6538;DHT22;3302;52.508;13.454;2024-03-17T01:02:37;5.20;95.20
6538;DHT22;3302;52.508;13.454;2024-03-17T01:05:04;5.10;95.20
6538;DHT22;3302;52.508;13.454;2024-03-17T01:07:33;5.00;95.50
6538;DHT22;3302;52.508;13.454;2024-03-17T01:09:59;5.00;95.60
6538;DHT22;3302;52.508;13.454;2024-03-17T01:12:25;5.00;95.50
6538;DHT22;3302;52.508;13.454;2024-03-17T01:14:51;5.00;95.40
6538;DHT22;3302;52.508;13.454;2024-03-17T01:17:17;5.00;95.20
6538;DHT22;3302;52.508;13.454;2024-03-17T01:19:45;5.00;95.10
6538;DHT22;3302;52.508;13.454;2024-03-17T01:22:11;5.00;95.20
6538;DHT22;3302;52.508;13.454;2024-03-17T01:24:37;4.90;95.10
6538;DHT22;3302;52.508;13.454;2024-03-17T01:27:05;4.90;95.40
6538;DHT22;3302;52.508;13.454;2024-03-17T01:29:32;4.80;95.60
6538;DHT22;3302;52.508;13.454;2024-03-17T01:31:57;4.80;95.80
6538;DHT22;3302;52.508;13.454;2024-03-17T01:34:23;4.90;95.80
6538;DHT22;3302;52.508;13.454;2024-03-17T01:36:49;4.90;95.70
6538;DHT22;3302;52.508;13.454;2024-03-17T01:39:15;4.80;96.00
6538;DHT22;3302;52.508;13.454;2024-03-17T01:41:42;4.70;96.30
6538;DHT22;3302;52.508;13.454;2024-03-17T01:44:22;4.80;96.40
6538;DHT22;3302;52.508;13.454;2024-03-17T01:46:48;4.70;96.40
6538;DHT22;3302;52.508;13.454;2024-03-17T01:49:14;4.70;96.40
6538;DHT22;3302;52.508;13.454;2024-03-17T01:51:40;4.70;96.40
6538;DHT22;3302;52.508;13.454;2024-03-17T01:54:07;4.70;96.60
6538;DHT22;3302;52.508;13.454;2024-03-17T01:56:33;4.70;96.80
6538;DHT22;3302;52.508;13.454;2024-03-17T01:59:00;4.70;96.60
6538;DHT22;3302;52.508;13.454;2024-03-17T02:01:27;4.80;96.60
6538;DHT22;3302;52.508;13.454;2024-03-17T02:03:52;4.70;96.60
6538;DHT22;3302;52.508;13.454;2024-03-17T02:06:18;4.70;96.70
6538;DHT22;3302;52.508;13.454;2024-03-17T02:08:52;4.70;96.80
6538;DHT22;3302;52.508;13.454;2024-03-17T02:11:27;4.70;96.90
6538;DHT22;3302;52.508;13.454;2024-03-17T02:13:54;4.70;96.90
6538;DHT22;3302;52.508;13.454;2024-03-17T02:16:21;4.60;97.50
6538;DHT22;3302;52.508;13.454;2024-03-17T02:18:47;4.60;97.30
6538;DHT22;3302;52.508;13.454;2024-03-17T02:21:13;4.60;97.30
6538;DHT22;3302;52.508;13.454;2024-03-17T02:23:43;4.60;97.30
6538;DHT22;3302;52.508;13.454;2024-03-17T02:26:10;4.60;97.30
6538;DHT22;3302;52.508;13.454;2024-03-17T02:28:40;4.60;97.50
6538;DHT22;3302;52.508;13.454;2024-03-17T02:31:08;4.50;97.70
6538;DHT22;3302;52.508;13.454;2024-03-17T02:33:36;4.50;97.70
6538;DHT22;3302;52.508;13.454;2024-03-17T02:36:05;4.50;97.70
6538;DHT22;3302;52.508;13.454;2024-03-17T02:38:40;4.40;97.90
6538;DHT22;3302;52.508;13.454;2024-03-17T02:41:26;4.40;98.10
6538;DHT22;3302;52.508;13.454;2024-03-17T02:43:52;4.40;98.30
6538;DHT22;3302;52.508;13.454;2024-03-17T02:46:18;4.40;98.30
6538;DHT22;3302;52.508;13.454;2024-03-17T02:48:51;4.40;98.40
6538;DHT22;3302;52.508;13.454;2024-03-17T02:51:18;4.50;98.30
6538;DHT22;3302;52.508;13.454;2024-03-17T02:53:46;4.40;98.40
6538;DHT22;3302;52.508;13.454;2024-03-17T02:56:13;4.30;98.90
6538;DHT22;3302;52.508;13.454;2024-03-17T02:58:42;4.30;98.60
6538;DHT22;3302;52.508;13.454;2024-03-17T03:01:09;4.30;98.80
6538;DHT22;3302;52.508;13.454;2024-03-17T03:03:38;4.20;99.00
6538;DHT22;3302;52.508;13.454;2024-03-17T03:06:04;4.30;99.00
6538;DHT22;3302;52.508;13.454;2024-03-17T03:08:43;4.20;99.30
6538;DHT22;3302;52.508;13.454;2024-03-17T03:11:11;4.20;99.30
6538;DHT22;3302;52.508;13.454;2024-03-17T03:13:44;4.20;99.40
6538;DHT22;3302;52.508;13.454;2024-03-17T03:16:11;4.20;99.40
6538;DHT22;3302;52.508;13.454;2024-03-17T03:18:38;4.20;99.40
6538;DHT22;3302;52.508;13.454;2024-03-17T03:21:07;4.10;99.40
6538;DHT22;3302;52.508;13.454;2024-03-17T03:23:34;4.10;99.50
6538;DHT22;3302;52.508;13.454;2024-03-17T03:26:01;4.10;99.70
6538;DHT22;3302;52.508;13.454;2024-03-17T03:28:32;4.00;99.90
6538;DHT22;3302;52.508;13.454;2024-03-17T03:30:59;4.00;99.90
6538;DHT22;3302;52.508;13.454;2024-03-17T03:33:25;3.90;99.90
6538;DHT22;3302;52.508;13.454;2024-03-17T03:35:51;4.00;99.90
6538;DHT22;3302;52.508;13.454;2024-03-17T03:38:17;4.00;99.90
6538;DHT22;3302;52.508;13.454;2024-03-17T03:40:45;4.10;99.90
6538;DHT22;3302;52.508;13.454;2024-03-17T03:43:11;3.90;99.90
6538;DHT22;3302;52.508;13.454;2024-03-17T03:45:39;3.90;99.90
6538;DHT22;3302;52.508;13.454;2024-03-17T03:48:06;3.90;99.90
6538;DHT22;3302;52.508;13.454;2024-03-17T03:50:34;3.90;99.90
6538;DHT22;3302;52.508;13.454;2024-03-17T03:53:00;3.80;99.90
6538;DHT22;3302;52.508;13.454;2024-03-17T03:55:26;3.80;99.90
6538;DHT22;3302;52.508;13.454;2024-03-17T03:57:52;3.80;99.90
6538;DHT22;3302;52.508;13.454;2024-03-17T04:00:19;3.80;99.90
6538;DHT22;3302;52.508;13.454;2024-03-17T04:02:48;3.80;99.90
6538;DHT22;3302;52.508;13.454;2024-03-17T04:05:15;3.90;99.90
6538;DHT22;3302;52.508;13.454;2024-03-17T04:07:41;3.70;99.90
6538;DHT22;3302;52.508;13.454;2024-03-17T04:10:09;3.80;99.90
6538;DHT22;3302;52.508;13.454;2024-03-17T04:12:35;3.70;99.90
6538;DHT22;3302;52.508;13.454;2024-03-17T04:15:01;3.70;99.90
6538;DHT22;3302;52.508;13.454;2024-03-17T04:17:27;3.70;99.90
6538;DHT22;3302;52.508;13.454;2024-03-17T04:19:54;3.70;99.90
6538;DHT22;3302;52.508;13.454;2024-03-17T04:22:21;3.70;99.90
6538;DHT22;3302;52.508;13.454;2024-03-17T04:24:51;3.70;99.90
6538;DHT22;3302;52.508;13.454;2024-03-17T04:27:20;3.70;99.90
6538;DHT22;3302;52.508;13.454;2024-03-17T04:29:47;3.60;99.90
6538;DHT22;3302;52.508;13.454;2024-03-17T04:32:16;3.60;99.90
6538;DHT22;3302;52.508;13.454;2024-03-17T04:34:42;3.60;99.90
6538;DHT22;3302;52.508;13.454;2024-03-17T04:37:09;3.60;99.90
6538;DHT22;3302;52.508;13.454;2024-03-17T04:39:38;3.60;99.90
6538;DHT22;3302;52.508;13.454;2024-03-17T04:42:05;3.60;99.90
6538;DHT22;3302;52.508;13.454;2024-03-17T04:44:32;3.60;99.90
6538;DHT22;3302;52.508;13.454;2024-03-17T04:46:58;3.50;99.90
6538;DHT22;3302;52.508;13.454;2024-03-17T04:49:23;3.50;99.90
6538;DHT22;3302;52.508;13.454;2024-03-17T04:51:49;3.50;99.90
6538;DHT22;3302;52.508;13.454;2024-03-17T04:54:15;3.40;99.90
6538;DHT22;3302;52.508;13.454;2024-03-17T04:56:41;3.40;99.90
6538;DHT22;3302;52.508;13.454;2024-03-17T04:59:07;3.50;99.90
6538;DHT22;3302;52.508;13.454;2024-03-17T05:01:33;3.40;99.90
6538;DHT22;3302;52.508;13.454;2024-03-17T05:04:04;3.30;99.90
6538;DHT22;3302;52.508;13.454;2024-03-17T05:06:30;3.40;99.90
6538;DHT22;3302;52.508;13.454;2024-03-17T05:08:56;3.40;99.90
6538;DHT22;3302;52.508;13.454;2024-03-17T05:11:22;3.40;99.90
6538;DHT22;3302;52.508;13.454;2024-03-17T05:13:49;3.40;99.90
6538;DHT22;3302;52.508;13.454;2024-03-17T05:16:15;3.40;99.90
6538;DHT22;3302;52.508;13.454;2024-03-17T05:18:42;3.40;99.90
6538;DHT22;3302;52.508;13.454;2024-03-17T05:21:08;3.30;99.90
6538;DHT22;3302;52.508;13.454;2024-03-17T05:23:36;3.30;99.90
6538;DHT22;3302;52.508;13.454;2024-03-17T05:26:05;3.30;99.90
6538;DHT22;3302;52.508;13.454;2024-03-17T05:28:31;3.30;99.90
6538;DHT22;3302;52.508;13.454;2024-03-17T05:30:57;3.30;99.90
6538;DHT22;3302;52.508;13.454;2024-03-17T05:33:23;3.30;99.90
6538;DHT22;3302;52.508;13.454;2024-03-17T05:38:25;3.30;99.90
6538;DHT22;3302;52.508;13.454;2024-03-17T05:43:21;3.30;99.90
6538;DHT22;3302;52.508;13.454;2024-03-17T05:45:48;3.30;99.90
6538;DHT22;3302;52.508;13.454;2024-03-17T05:48:13;3.30;99.90
6538;DHT22;3302;52.508;13.454;2024-03-17T05:50:39;3.30;99.90
6538;DHT22;3302;52.508;13.454;2024-03-17T05:53:05;3.30;99.90
6538;DHT22;3302;52.508;13.454;2024-03-17T05:55:31;3.40;99.90
6538;DHT22;3302;52.508;13.454;2024-03-17T05:57:56;3.40;99.90
6538;DHT22;3302;52.508;13.454;2024-03-17T06:00:22;3.40;99.90
6538;DHT22;3302;52.508;13.454;2024-03-17T06:02:48;3.40;99.90
6538;DHT22;3302;52.508;13.454;2024-03-17T06:05:14;3.40;99.90
6538;DHT22;3302;52.508;13.454;2024-03-17T06:07:40;3.40;99.90
6538;DHT22;3302;52.508;13.454;2024-03-17T06:10:06;3.40;99.90
6538;DHT22;3302;52.508;13.454;2024-03-17T06:12:32;3.50;99.90
6538;DHT22;3302;52.508;13.454;2024-03-17T06:14:59;3.50;99.90
6538;DHT22;3302;52.508;13.454;2024-03-17T06:17:25;3.40;99.90
6538;DHT22;3302;52.508;13.454;2024-03-17T06:19:52;3.50;99.90
6538;DHT22;3302;52.508;13.454;2024-03-17T06:22:18;3.50;99.90
6538;DHT22;3302;52.508;13.454;2024-03-17T06:24:43;3.60;99.90
6538;DHT22;3302;52.508;13.454;2024-03-17T06:27:09;3.50;99.90
6538;DHT22;3302;52.508;13.454;2024-03-17T06:29:35;3.50;99.90
6538;DHT22;3302;52.508;13.454;2024-03-17T06:32:01;3.60;99.90
6538;DHT22;3302;52.508;13.454;2024-03-17T06:34:27;3.60;99.90
6538;DHT22;3302;52.508;13.454;2024-03-17T06:36:53;3.60;99.90
6538;DHT22;3302;52.508;13.454;2024-03-17T06:39:19;3.70;99.90
6538;DHT22;3302;52.508;13.454;2024-03-17T06:41:46;3.60;99.90
6538;DHT22;3302;52.508;13.454;2024-03-17T06:44:12;3.70;99.90
6538;DHT22;3302;52.508;13.454;2024-03-17T06:46:38;3.60;99.90
6538;DHT22;3302;52.508;13.454;2024-03-17T06:49:04;3.70;99.90
6538;DHT22;3302;52.508;13.454;2024-03-17T06:51:30;3.60;99.90
6538;DHT22;3302;52.508;13.454;2024-03-17T06:53:55;3.70;99.90
6538;DHT22;3302;52.508;13.454;2024-03-17T06:56:22;3.70;99.90
6538;DHT22;3302;52.508;13.454;2024-03-17T06:58:48;3.80;99.90
6538;DHT22;3302;52.508;13.454;2024-03-17T07:01:13;3.90;99.90
6538;DHT22;3302;52.508;13.454;2024-03-17T07:03:39;3.90;99.90
6538;DHT22;3302;52.508;13.454;2024-03-17T07:06:05;4.00;99.90
6538;DHT22;3302;52.508;13.454;2024-03-17T07:08:33;4.10;99.90
6538;DHT22;3302;52.508;13.454;2024-03-17T07:11:04;4.00;99.90
6538;DHT22;3302;52.508;13.454;2024-03-17T07:13:32;4.10;99.90
6538;DHT22;3302;52.508;13.454;2024-03-17T07:16:03;4.10;99.90
6538;DHT22;3302;52.508;13.454;2024-03-17T07:18:31;4.10;99.90
6538;DHT22;3302;52.508;13.454;2024-03-17T07:20:58;4.30;99.90
6538;DHT22;3302;52.508;13.454;2024-03-17T07:23:25;4.40;99.80
6538;DHT22;3302;52.508;13.454;2024-03-17T07:25:59;4.40;99.80
6538;DHT22;3302;52.508;13.454;2024-03-17T07:28:25;4.40;99.60
6538;DHT22;3302;52.508;13.454;2024-03-17T07:30:58;4.50;99.60
6538;DHT22;3302;52.508;13.454;2024-03-17T07:33:26;4.40;99.50
6538;DHT22;3302;52.508;13.454;2024-03-17T07:35:56;4.50;99.40
6538;DHT22;3302;52.508;13.454;2024-03-17T07:38:25;4.60;98.90
6538;DHT22;3302;52.508;13.454;2024-03-17T07:41:10;4.50;98.90
6538;DHT22;3302;52.508;13.454;2024-03-17T07:43:38;4.60;98.60
6538;DHT22;3302;52.508;13.454;2024-03-17T07:46:09;4.70;98.40
6538;DHT22;3302;52.508;13.454;2024-03-17T07:48:39;4.60;98.30
6538;DHT22;3302;52.508;13.454;2024-03-17T07:51:13;4.70;98.40
6538;DHT22;3302;52.508;13.454;2024-03-17T07:53:40;4.70;99.00
6538;DHT22;3302;52.508;13.454;2024-03-17T07:56:08;4.80;98.20
6538;DHT22;3302;52.508;13.454;2024-03-17T07:58:39;4.90;98.10
6538;DHT22;3302;52.508;13.454;2024-03-17T08:01:12;5.00;97.70
6538;DHT22;3302;52.508;13.454;2024-03-17T08:03:46;5.10;96.90
6538;DHT22;3302;52.508;13.454;2024-03-17T08:06:15;5.00;96.60
6538;DHT22;3302;52.508;13.454;2024-03-17T08:08:40;5.10;96.60
6538;DHT22;3302;52.508;13.454;2024-03-17T08:11:06;4.90;96.60
6538;DHT22;3302;52.508;13.454;2024-03-17T08:13:32;5.10;96.30
6538;DHT22;3302;52.508;13.454;2024-03-17T08:16:09;5.20;96.10
6538;DHT22;3302;52.508;13.454;2024-03-17T08:18:35;5.40;95.60
6538;DHT22;3302;52.508;13.454;2024-03-17T08:21:02;5.40;95.50
6538;DHT22;3302;52.508;13.454;2024-03-17T08:23:32;5.50;95.20
6538;DHT22;3302;52.508;13.454;2024-03-17T08:26:00;5.60;95.00
6538;DHT22;3302;52.508;13.454;2024-03-17T08:28:27;5.40;94.50
6538;DHT22;3302;52.508;13.454;2024-03-17T08:30:57;5.40;94.50
6538;DHT22;3302;52.508;13.454;2024-03-17T08:33:25;5.60;94.50
6538;DHT22;3302;52.508;13.454;2024-03-17T08:36:01;5.50;94.80
6538;DHT22;3302;52.508;13.454;2024-03-17T08:38:28;5.50;94.50
6538;DHT22;3302;52.508;13.454;2024-03-17T08:40:55;5.70;94.60
6538;DHT22;3302;52.508;13.454;2024-03-17T08:43:22;6.00;94.40
6538;DHT22;3302;52.508;13.454;2024-03-17T08:48:29;5.80;94.20
6538;DHT22;3302;52.508;13.454;2024-03-17T08:50:57;5.70;94.00
6538;DHT22;3302;52.508;13.454;2024-03-17T08:53:23;5.80;94.40
6538;DHT22;3302;52.508;13.454;2024-03-17T08:55:49;5.80;94.30
6538;DHT22;3302;52.508;13.454;2024-03-17T08:58:16;5.90;93.70
6538;DHT22;3302;52.508;13.454;2024-03-17T09:00:42;6.00;93.40
6538;DHT22;3302;52.508;13.454;2024-03-17T09:03:08;5.80;93.50
6538;DHT22;3302;52.508;13.454;2024-03-17T09:05:43;5.70;92.90
6538;DHT22;3302;52.508;13.454;2024-03-17T09:08:18;5.90;92.80
6538;DHT22;3302;52.508;13.454;2024-03-17T09:10:46;5.70;92.20
6538;DHT22;3302;52.508;13.454;2024-03-17T09:13:17;5.70;92.40
6538;DHT22;3302;52.508;13.454;2024-03-17T09:16:00;5.80;92.30
6538;DHT22;3302;52.508;13.454;2024-03-17T09:18:29;6.00;91.80
6538;DHT22;3302;52.508;13.454;2024-03-17T09:21:04;6.00;91.50
6538;DHT22;3302;52.508;13.454;2024-03-17T09:23:30;6.00;91.30
6538;DHT22;3302;52.508;13.454;2024-03-17T09:26:04;6.10;91.50
6538;DHT22;3302;52.508;13.454;2024-03-17T09:28:31;6.40;91.10
6538;DHT22;3302;52.508;13.454;2024-03-17T09:30:58;6.60;91.10
6538;DHT22;3302;52.508;13.454;2024-03-17T09:33:25;6.50;90.80
6538;DHT22;3302;52.508;13.454;2024-03-17T09:36:02;6.30;90.70
6538;DHT22;3302;52.508;13.454;2024-03-17T09:38:29;6.50;90.50
6538;DHT22;3302;52.508;13.454;2024-03-17T09:40:55;6.20;90.60
6538;DHT22;3302;52.508;13.454;2024-03-17T09:43:27;6.60;90.50
6538;DHT22;3302;52.508;13.454;2024-03-17T09:45:54;6.90;90.20
6538;DHT22;3302;52.508;13.454;2024-03-17T09:48:24;7.10;90.00
6538;DHT22;3302;52.508;13.454;2024-03-17T09:50:55;7.00;90.00
6538;DHT22;3302;52.508;13.454;2024-03-17T09:53:27;6.50;89.30
6538;DHT22;3302;52.508;13.454;2024-03-17T09:55:58;6.80;88.00
6538;DHT22;3302;52.508;13.454;2024-03-17T09:58:23;6.80;87.20
6538;DHT22;3302;52.508;13.454;2024-03-17T10:00:50;7.00;85.80
6538;DHT22;3302;52.508;13.454;2024-03-17T10:06:21;6.80;86.20
6538;DHT22;3302;52.508;13.454;2024-03-17T10:08:53;7.20;85.80
6538;DHT22;3302;52.508;13.454;2024-03-17T10:11:20;6.90;85.10
6538;DHT22;3302;52.508;13.454;2024-03-17T10:14:05;6.70;86.00
6538;DHT22;3302;52.508;13.454;2024-03-17T10:16:32;6.90;85.50
6538;DHT22;3302;52.508;13.454;2024-03-17T10:19:25;7.10;86.60
6538;DHT22;3302;52.508;13.454;2024-03-17T10:22:00;7.20;85.10
6538;DHT22;3302;52.508;13.454;2024-03-17T10:24:27;7.40;85.20
6538;DHT22;3302;52.508;13.454;2024-03-17T10:26:58;7.40;85.40
6538;DHT22;3302;52.508;13.454;2024-03-17T10:29:29;7.20;85.20
6538;DHT22;3302;52.508;13.454;2024-03-17T10:32:03;7.10;85.60
6538;DHT22;3302;52.508;13.454;2024-03-17T10:34:30;7.60;84.50
6538;DHT22;3302;52.508;13.454;2024-03-17T10:37:17;7.70;84.20
6538;DHT22;3302;52.508;13.454;2024-03-17T10:39:46;7.50;83.10
6538;DHT22;3302;52.508;13.454;2024-03-17T10:42:24;7.60;83.10
6538;DHT22;3302;52.508;13.454;2024-03-17T10:44:50;7.50;83.30
6538;DHT22;3302;52.508;13.454;2024-03-17T10:47:22;7.70;82.90
6538;DHT22;3302;52.508;13.454;2024-03-17T10:49:50;7.60;81.80
6538;DHT22;3302;52.508;13.454;2024-03-17T10:52:18;7.60;82.50
6538;DHT22;3302;52.508;13.454;2024-03-17T10:54:48;7.80;81.00
6538;DHT22;3302;52.508;13.454;2024-03-17T10:57:24;7.80;80.70
6538;DHT22;3302;52.508;13.454;2024-03-17T10:59:53;7.30;81.60
6538;DHT22;3302;52.508;13.454;2024-03-17T11:02:22;7.40;82.20
6538;DHT22;3302;52.508;13.454;2024-03-17T11:04:52;7.20;81.80
6538;DHT22;3302;52.508;13.454;2024-03-17T11:07:20;7.40;81.70
6538;DHT22;3302;52.508;13.454;2024-03-17T11:09:47;7.50;81.40
6538;DHT22;3302;52.508;13.454;2024-03-17T11:12:43;7.80;79.50
6538;DHT22;3302;52.508;13.454;2024-03-17T11:17:48;7.80;78.20
6538;DHT22;3302;52.508;13.454;2024-03-17T11:20:25;7.70;79.20
6538;DHT22;3302;52.508;13.454;2024-03-17T11:23:09;7.60;78.70
6538;DHT22;3302;52.508;13.454;2024-03-17T11:28:01;7.60;77.40
6538;DHT22;3302;52.508;13.454;2024-03-17T11:30:49;7.70;76.00
6538;DHT22;3302;52.508;13.454;2024-03-17T11:38:58;7.90;75.70
6538;DHT22;3302;52.508;13.454;2024-03-17T11:47:07;8.30;76.30
6538;DHT22;3302;52.508;13.454;2024-03-17T11:49:38;8.00;73.80
6538;DHT22;3302;52.508;13.454;2024-03-17T11:52:14;8.10;73.00
6538;DHT22;3302;52.508;13.454;2024-03-17T11:54:44;8.00;72.10
6538;DHT22;3302;52.508;13.454;2024-03-17T11:59:37;8.30;71.80
6538;DHT22;3302;52.508;13.454;2024-03-17T12:02:16;8.60;71.40
6538;DHT22;3302;52.508;13.454;2024-03-17T12:04:43;8.70;71.40
6538;DHT22;3302;52.508;13.454;2024-03-17T12:07:14;8.70;71.70
6538;DHT22;3302;52.508;13.454;2024-03-17T12:09:45;8.40;70.10
6538;DHT22;3302;52.508;13.454;2024-03-17T12:12:18;8.50;72.50
6538;DHT22;3302;52.508;13.454;2024-03-17T12:14:45;8.70;70.30
6538;DHT22;3302;52.508;13.454;2024-03-17T12:17:12;8.60;69.80
6538;DHT22;3302;52.508;13.454;2024-03-17T12:19:40;8.60;69.90
6538;DHT22;3302;52.508;13.454;2024-03-17T12:22:06;8.80;69.60
6538;DHT22;3302;52.508;13.454;2024-03-17T12:24:34;8.90;68.90
6538;DHT22;3302;52.508;13.454;2024-03-17T12:27:01;8.80;69.10
6538;DHT22;3302;52.508;13.454;2024-03-17T12:32:05;8.90;68.00
6538;DHT22;3302;52.508;13.454;2024-03-17T12:34:34;9.20;67.20
6538;DHT22;3302;52.508;13.454;2024-03-17T12:37:00;9.10;67.20
6538;DHT22;3302;52.508;13.454;2024-03-17T12:39:27;8.90;66.40
6538;DHT22;3302;52.508;13.454;2024-03-17T12:44:33;9.20;66.90
6538;DHT22;3302;52.508;13.454;2024-03-17T12:47:01;9.40;66.40
6538;DHT22;3302;52.508;13.454;2024-03-17T12:49:34;9.50;66.00
6538;DHT22;3302;52.508;13.454;2024-03-17T12:52:01;9.30;65.20
6538;DHT22;3302;52.508;13.454;2024-03-17T12:54:27;9.10;65.40
6538;DHT22;3302;52.508;13.454;2024-03-17T12:57:07;9.20;66.50
6538;DHT22;3302;52.508;13.454;2024-03-17T12:59:52;8.90;66.30
6538;DHT22;3302;52.508;13.454;2024-03-17T13:02:45;8.90;67.00
6538;DHT22;3302;52.508;13.454;2024-03-17T13:05:18;9.00;66.70
6538;DHT22;3302;52.508;13.454;2024-03-17T13:07:46;9.20;65.80
6538;DHT22;3302;52.508;13.454;2024-03-17T13:10:16;9.10;65.40
6538;DHT22;3302;52.508;13.454;2024-03-17T13:12:45;9.20;65.90
6538;DHT22;3302;52.508;13.454;2024-03-17T13:15:16;9.30;66.10
6538;DHT22;3302;52.508;13.454;2024-03-17T13:17:43;9.10;65.30
6538;DHT22;3302;52.508;13.454;2024-03-17T13:20:14;9.00;65.60
6538;DHT22;3302;52.508;13.454;2024-03-17T13:22:44;9.20;66.50
6538;DHT22;3302;52.508;13.454;2024-03-17T13:25:18;9.20;66.20
6538;DHT22;3302;52.508;13.454;2024-03-17T13:27:47;9.20;65.40
6538;DHT22;3302;52.508;13.454;2024-03-17T13:30:14;9.20;66.10
6538;DHT22;3302;52.508;13.454;2024-03-17T13:32:40;9.20;66.10
6538;DHT22;3302;52.508;13.454;2024-03-17T13:35:21;9.30;66.20
6538;DHT22;3302;52.508;13.454;2024-03-17T13:37:49;9.10;64.60
6538;DHT22;3302;52.508;13.454;2024-03-17T13:40:17;8.80;64.20
6538;DHT22;3302;52.508;13.454;2024-03-17T13:42:49;8.80;64.70
6538;DHT22;3302;52.508;13.454;2024-03-17T13:45:16;8.90;63.90
6538;DHT22;3302;52.508;13.454;2024-03-17T13:47:47;8.90;63.70
6538;DHT22;3302;52.508;13.454;2024-03-17T13:50:13;9.10;64.60
6538;DHT22;3302;52.508;13.454;2024-03-17T13:52:40;9.10;65.00
6538;DHT22;3302;52.508;13.454;2024-03-17T13:55:10;9.10;65.10
6538;DHT22;3302;52.508;13.454;2024-03-17T13:57:37;9.00;66.20
6538;DHT22;3302;52.508;13.454;2024-03-17T14:00:03;9.20;66.60
6538;DHT22;3302;52.508;13.454;2024-03-17T14:02:33;9.30;66.70
6538;DHT22;3302;52.508;13.454;2024-03-17T14:04:59;9.20;65.90
6538;DHT22;3302;52.508;13.454;2024-03-17T14:07:25;9.10;65.00
6538;DHT22;3302;52.508;13.454;2024-03-17T14:09:51;9.10;64.70
6538;DHT22;3302;52.508;13.454;2024-03-17T14:12:17;8.90;63.90
6538;DHT22;3302;52.508;13.454;2024-03-17T14:14:43;9.20;63.10
6538;DHT22;3302;52.508;13.454;2024-03-17T14:17:09;9.20;62.30
6538;DHT22;3302;52.508;13.454;2024-03-17T14:19:35;9.30;61.00
6538;DHT22;3302;52.508;13.454;2024-03-17T14:22:01;9.40;62.20
6538;DHT22;3302;52.508;13.454;2024-03-17T14:24:27;9.50;62.20
6538;DHT22;3302;52.508;13.454;2024-03-17T14:26:54;9.40;62.70
6538;DHT22;3302;52.508;13.454;2024-03-17T14:29:20;9.80;63.10
6538;DHT22;3302;52.508;13.454;2024-03-17T14:31:45;9.90;61.50
6538;DHT22;3302;52.508;13.454;2024-03-17T14:34:11;9.70;61.60
6538;DHT22;3302;52.508;13.454;2024-03-17T14:36:37;9.40;62.80
6538;DHT22;3302;52.508;13.454;2024-03-17T14:39:03;9.70;63.30
6538;DHT22;3302;52.508;13.454;2024-03-17T14:41:30;9.90;63.20
6538;DHT22;3302;52.508;13.454;2024-03-17T14:43:57;9.50;65.30
6538;DHT22;3302;52.508;13.454;2024-03-17T14:46:23;9.90;64.50
6538;DHT22;3302;52.508;13.454;2024-03-17T14:48:49;9.90;65.30
6538;DHT22;3302;52.508;13.454;2024-03-17T14:51:19;10.10;63.90
6538;DHT22;3302;52.508;13.454;2024-03-17T14:53:49;10.30;64.00
6538;DHT22;3302;52.508;13.454;2024-03-17T14:56:19;10.00;64.20
6538;DHT22;3302;52.508;13.454;2024-03-17T14:58:46;9.60;66.00
6538;DHT22;3302;52.508;13.454;2024-03-17T15:01:13;9.80;66.60
6538;DHT22;3302;52.508;13.454;2024-03-17T15:03:39;9.60;66.90
6538;DHT22;3302;52.508;13.454;2024-03-17T15:06:23;9.90;67.30
6538;DHT22;3302;52.508;13.454;2024-03-17T15:08:50;9.90;66.20
6538;DHT22;3302;52.508;13.454;2024-03-17T15:11:16;9.80;66.50
6538;DHT22;3302;52.508;13.454;2024-03-17T15:13:43;9.70;66.70
6538;DHT22;3302;52.508;13.454;2024-03-17T15:16:10;9.80;67.60
6538;DHT22;3302;52.508;13.454;2024-03-17T15:18:37;9.70;66.80
6538;DHT22;3302;52.508;13.454;2024-03-17T15:21:04;9.70;67.10
6538;DHT22;3302;52.508;13.454;2024-03-17T15:23:33;9.60;67.10
6538;DHT22;3302;52.508;13.454;2024-03-17T15:26:03;9.60;66.80
6538;DHT22;3302;52.508;13.454;2024-03-17T15:28:36;9.60;66.20
6538;DHT22;3302;52.508;13.454;2024-03-17T15:31:08;9.80;67.90
6538;DHT22;3302;52.508;13.454;2024-03-17T15:33:35;9.90;65.60
6538;DHT22;3302;52.508;13.454;2024-03-17T15:36:03;9.80;64.80
6538;DHT22;3302;52.508;13.454;2024-03-17T15:38:33;9.90;64.90
6538;DHT22;3302;52.508;13.454;2024-03-17T15:41:02;10.00;63.30
6538;DHT22;3302;52.508;13.454;2024-03-17T15:43:28;9.90;64.20
6538;DHT22;3302;52.508;13.454;2024-03-17T15:45:57;10.10;63.50
6538;DHT22;3302;52.508;13.454;2024-03-17T15:48:23;10.10;62.20
6538;DHT22;3302;52.508;13.454;2024-03-17T15:50:58;9.90;63.60
6538;DHT22;3302;52.508;13.454;2024-03-17T15:53:24;9.80;63.70
6538;DHT22;3302;52.508;13.454;2024-03-17T15:56:00;9.80;63.80
6538;DHT22;3302;52.508;13.454;2024-03-17T15:58:27;9.70;64.20
6538;DHT22;3302;52.508;13.454;2024-03-17T16:00:54;9.50;64.10
6538;DHT22;3302;52.508;13.454;2024-03-17T16:03:21;9.60;64.10
6538;DHT22;3302;52.508;13.454;2024-03-17T16:05:52;9.60;64.30
6538;DHT22;3302;52.508;13.454;2024-03-17T16:08:20;9.40;64.60
6538;DHT22;3302;52.508;13.454;2024-03-17T16:10:55;9.30;64.90
6538;DHT22;3302;52.508;13.454;2024-03-17T16:13:23;9.30;65.10
6538;DHT22;3302;52.508;13.454;2024-03-17T16:15:50;9.30;64.80
6538;DHT22;3302;52.508;13.454;2024-03-17T16:18:20;9.20;64.40
6538;DHT22;3302;52.508;13.454;2024-03-17T16:23:15;9.00;65.30
6538;DHT22;3302;52.508;13.454;2024-03-17T16:25:50;8.90;65.70
6538;DHT22;3302;52.508;13.454;2024-03-17T16:28:25;8.90;66.30
6538;DHT22;3302;52.508;13.454;2024-03-17T16:30:53;8.80;66.30
6538;DHT22;3302;52.508;13.454;2024-03-17T16:33:21;8.70;66.90
6538;DHT22;3302;52.508;13.454;2024-03-17T16:35:47;8.70;67.10
6538;DHT22;3302;52.508;13.454;2024-03-17T16:38:12;8.60;67.30
6538;DHT22;3302;52.508;13.454;2024-03-17T16:40:39;8.60;67.50
6538;DHT22;3302;52.508;13.454;2024-03-17T16:43:06;8.50;67.70
6538;DHT22;3302;52.508;13.454;2024-03-17T16:45:34;8.50;68.00
6538;DHT22;3302;52.508;13.454;2024-03-17T16:48:03;8.30;68.10